createdAt,value
2023-04-01T00:03:06.454Z,13.23
2023-04-01T00:13:12.400Z,11.90
2023-04-01T00:18:15.536Z,14.85
2023-04-01T00:23:19.707Z,14.00
2023-04-01T00:28:22.985Z,14.30
2023-04-01T00:33:25.958Z,13.93
2023-04-01T00:38:28.917Z,13.50
2023-04-01T00:43:32.134Z,10.00
2023-04-01T00:48:37.915Z,9.90
2023-04-01T00:59:09.654Z,11.27
2023-04-01T01:04:30.028Z,11.13
2023-04-01T01:09:57.502Z,11.65
2023-04-01T01:15:16.215Z,13.32
2023-04-01T01:20:34.253Z,9.88
2023-04-01T01:26:27.573Z,8.60
2023-04-01T01:31:48.423Z,10.07
2023-04-01T01:36:57.292Z,11.02
2023-04-01T01:42:05.550Z,12.05
2023-04-01T01:47:09.352Z,12.32
2023-04-01T01:52:14.040Z,8.75
2023-04-01T01:57:19.199Z,8.35
2023-04-01T02:02:27.110Z,10.13
2023-04-01T02:07:34.470Z,14.57
2023-04-01T02:12:39.297Z,14.23
2023-04-01T02:17:47.354Z,12.05
2023-04-01T02:22:56.380Z,11.95
2023-04-01T02:28:02.012Z,11.57
2023-04-01T02:33:06.948Z,12.00
2023-04-01T02:38:10.342Z,11.52
2023-04-01T02:43:13.706Z,13.43
2023-04-01T02:48:16.515Z,8.52
2023-04-01T02:53:19.830Z,11.48
2023-04-01T02:58:22.884Z,10.35
2023-04-01T03:03:26.443Z,12.13
2023-04-01T03:08:30.034Z,13.63
2023-04-01T03:13:51.442Z,13.13
2023-04-01T03:18:56.590Z,10.93
2023-04-01T03:24:00.145Z,13.30
2023-04-01T03:29:05.014Z,9.77
2023-04-01T03:34:07.931Z,13.45
2023-04-01T03:39:11.089Z,10.40
2023-04-01T03:44:17.937Z,12.30
2023-04-01T03:49:25.265Z,15.35
2023-04-01T03:54:28.434Z,9.55
2023-04-01T03:59:31.868Z,13.10
2023-04-01T04:04:35.643Z,15.98
2023-04-01T04:09:38.632Z,12.48
2023-04-01T04:14:41.777Z,7.70
2023-04-01T04:19:44.874Z,15.07
2023-04-01T04:24:48.653Z,9.10
2023-04-01T04:29:51.578Z,14.23
2023-04-01T04:34:54.898Z,17.65
2023-04-01T04:39:57.852Z,13.23
2023-04-01T04:45:00.781Z,15.10
2023-04-01T04:50:04.866Z,14.75
2023-04-01T04:55:08.739Z,14.30
2023-04-01T05:00:12.667Z,11.50
2023-04-01T05:05:25.092Z,12.57
2023-04-01T05:10:27.971Z,13.38
2023-04-01T05:15:31.244Z,12.75
2023-04-01T05:20:34.616Z,13.68
2023-04-01T05:25:39.434Z,10.45
2023-04-01T05:30:43.534Z,12.98
2023-04-01T05:36:16.457Z,12.55
2023-04-01T05:41:19.663Z,14.32
2023-04-01T05:46:22.889Z,12.38
2023-04-01T05:51:31.874Z,13.90
2023-04-01T05:56:35.312Z,11.32
2023-04-01T06:01:39.077Z,10.43
2023-04-01T06:06:41.947Z,9.38
2023-04-01T06:11:47.335Z,9.32
2023-04-01T06:17:20.903Z,11.18
2023-04-01T06:22:37.942Z,8.02
2023-04-01T06:28:04.300Z,8.63
2023-04-01T06:33:31.266Z,7.78
2023-04-01T06:38:52.846Z,8.73
2023-04-01T06:44:26.447Z,12.20
2023-04-01T06:49:57.969Z,9.80
2023-04-01T06:55:43.412Z,7.90
2023-04-01T07:01:11.192Z,7.80
2023-04-01T07:06:25.097Z,9.38
2023-04-01T07:11:35.542Z,12.60
2023-04-01T07:17:22.272Z,7.40
2023-04-01T07:22:33.950Z,9.32
2023-04-01T07:27:51.651Z,7.72
2023-04-01T07:33:10.236Z,7.60
2023-04-01T07:38:26.782Z,7.40
2023-04-01T07:43:53.899Z,8.52
2023-04-01T07:49:40.416Z,8.85
2023-04-01T07:54:46.571Z,7.93
2023-04-01T08:00:12.560Z,10.75
2023-04-01T08:06:09.032Z,5.88
2023-04-01T08:11:27.330Z,6.45
2023-04-01T08:16:58.492Z,7.45
2023-04-01T08:22:19.065Z,6.57
2023-04-01T08:27:24.450Z,7.88
2023-04-01T08:32:43.904Z,7.57
2023-04-01T08:37:51.605Z,7.80
2023-04-01T08:43:30.297Z,6.75
2023-04-01T08:48:52.356Z,6.28
2023-04-01T08:54:39.321Z,7.07
2023-04-01T09:00:02.264Z,7.03
2023-04-01T09:05:54.021Z,6.97
2023-04-01T09:11:09.375Z,6.95
2023-04-01T09:16:42.430Z,6.13
2023-04-01T09:22:02.006Z,6.65
2023-04-01T09:27:27.579Z,5.80
2023-04-01T09:33:12.663Z,8.45
2023-04-01T09:38:24.859Z,7.47
2023-04-01T09:43:49.433Z,8.27
2023-04-01T09:49:15.146Z,6.65
2023-04-01T09:54:36.413Z,6.32
2023-04-01T09:59:41.871Z,5.82
2023-04-01T10:05:11.386Z,6.72
2023-04-01T10:10:21.056Z,6.25
2023-04-01T10:16:01.373Z,7.22
2023-04-01T10:21:20.145Z,6.95
2023-04-01T10:26:46.382Z,6.88
2023-04-01T10:32:27.365Z,7.75
2023-04-01T10:37:45.402Z,8.15
2023-04-01T10:43:13.086Z,8.52
2023-04-01T10:48:53.127Z,8.55
2023-04-01T10:54:33.525Z,9.45
2023-04-01T11:00:38.496Z,7.97
2023-04-01T11:06:13.268Z,9.93
2023-04-01T11:11:53.417Z,8.90
2023-04-01T11:17:18.998Z,9.75
2023-04-01T11:23:09.164Z,10.63
2023-04-01T11:28:31.174Z,9.32
2023-04-01T11:33:51.741Z,8.60
2023-04-01T11:39:10.013Z,7.88
2023-04-01T11:44:54.759Z,7.88
2023-04-01T11:50:07.785Z,9.65
2023-04-01T11:56:09.773Z,9.32
2023-04-01T12:01:46.239Z,7.63
2023-04-01T12:07:27.126Z,9.02
2023-04-01T12:13:00.830Z,9.65
2023-04-01T12:18:14.376Z,8.77
2023-04-01T12:23:35.712Z,11.00
2023-04-01T12:29:18.222Z,8.43
2023-04-01T12:34:59.947Z,10.85
2023-04-01T12:40:21.814Z,10.52
2023-04-01T12:45:32.304Z,8.80
2023-04-01T12:51:13.220Z,12.48
2023-04-01T12:56:39.619Z,10.50
2023-04-01T13:01:56.666Z,11.52
2023-04-01T13:07:18.030Z,15.20
2023-04-01T13:12:40.089Z,10.90
2023-04-01T13:18:07.865Z,13.15
2023-04-01T13:23:51.978Z,9.55
2023-04-01T13:29:17.069Z,12.82
2023-04-01T13:34:28.979Z,10.13
2023-04-01T13:39:50.685Z,10.13
2023-04-01T13:45:18.319Z,10.85
2023-04-01T13:50:27.015Z,10.07
2023-04-01T13:55:33.167Z,13.57
2023-04-01T14:01:04.288Z,13.27
2023-04-01T14:06:11.952Z,11.88
2023-04-01T14:11:49.945Z,13.68
2023-04-01T14:17:18.680Z,11.18
2023-04-01T14:22:44.521Z,12.73
2023-04-01T14:28:20.202Z,13.73
2023-04-01T14:33:43.079Z,11.30
2023-04-01T14:38:51.950Z,11.75
2023-04-01T14:43:54.788Z,10.35
2023-04-01T14:49:02.096Z,9.68
2023-04-01T14:54:43.150Z,11.13
2023-04-01T15:00:10.596Z,13.30
2023-04-01T15:05:13.467Z,5.53
2023-04-01T15:10:41.197Z,8.30
2023-04-01T15:15:44.034Z,9.45
2023-04-01T15:21:03.713Z,12.05
2023-04-01T15:26:22.395Z,7.63
2023-04-01T15:31:49.383Z,8.10
2023-04-01T15:37:06.104Z,9.50
2023-04-01T15:42:27.913Z,10.95
2023-04-01T15:47:54.445Z,8.15
2023-04-01T15:53:06.069Z,11.45
2023-04-01T15:58:29.432Z,8.38
2023-04-01T16:09:11.903Z,14.20
2023-04-01T16:14:27.091Z,9.20
2023-04-01T16:20:05.485Z,8.98
2023-04-01T16:25:48.706Z,8.93
2023-04-01T16:31:28.976Z,8.85
2023-04-01T16:36:41.020Z,9.57
2023-04-01T16:42:45.807Z,9.25
2023-04-01T16:47:49.154Z,9.48
2023-04-01T16:53:02.203Z,10.27
2023-04-01T16:58:07.308Z,8.27
2023-04-01T17:03:23.176Z,11.05
2023-04-01T17:09:06.642Z,10.88
2023-04-01T17:14:46.812Z,12.07
2023-04-01T17:20:21.057Z,11.40
2023-04-01T17:25:39.534Z,15.10
2023-04-01T17:31:00.989Z,13.18
2023-04-01T17:36:13.789Z,11.93
2023-04-01T17:41:37.725Z,15.85
2023-04-01T17:47:04.956Z,11.63
2023-04-01T17:52:33.594Z,15.55
2023-04-01T17:58:08.067Z,16.33
2023-04-01T18:03:42.036Z,12.88
2023-04-01T18:09:29.974Z,15.07
2023-04-01T18:15:14.248Z,14.68
2023-04-01T18:20:26.383Z,12.70
2023-04-01T18:25:43.624Z,19.80
2023-04-01T18:31:11.083Z,12.93
2023-04-01T18:36:43.322Z,14.85
2023-04-01T18:41:46.293Z,15.50
2023-04-01T18:47:38.173Z,16.15
2023-04-01T18:52:44.618Z,16.08
2023-04-01T18:58:15.107Z,18.40
2023-04-01T19:03:28.095Z,21.77
2023-04-01T19:08:35.189Z,18.73
2023-04-01T19:14:10.109Z,22.48
2023-04-01T19:19:46.514Z,20.02
2023-04-01T19:25:24.848Z,18.45
2023-04-01T19:30:37.309Z,16.58
2023-04-01T19:36:00.159Z,17.10
2023-04-01T19:41:21.528Z,14.07
2023-04-01T19:46:46.275Z,17.90
2023-04-01T19:52:29.109Z,18.80
2023-04-01T19:57:37.917Z,20.42
2023-04-01T20:03:04.800Z,26.17
2023-04-01T20:08:17.482Z,17.35
2023-04-01T20:13:23.449Z,18.33
2023-04-01T20:18:35.888Z,17.35
2023-04-01T20:24:16.186Z,15.52
2023-04-01T20:29:57.035Z,18.02
2023-04-01T20:35:24.240Z,20.13
2023-04-01T20:40:36.540Z,16.00
2023-04-01T20:46:07.099Z,16.92
2023-04-01T20:51:25.308Z,12.00
2023-04-01T20:57:01.758Z,15.35
2023-04-01T21:02:43.590Z,13.25
2023-04-01T21:07:58.024Z,14.52
2023-04-01T21:13:40.614Z,17.58
2023-04-01T21:19:06.401Z,18.20
2023-04-01T21:24:39.465Z,17.77
2023-04-01T21:30:04.657Z,20.48
2023-04-01T21:35:41.366Z,16.73
2023-04-01T21:46:34.894Z,19.02
2023-04-01T21:51:40.960Z,20.23
2023-04-01T21:57:22.500Z,18.50
2023-04-01T22:02:43.690Z,16.75
2023-04-01T22:08:17.453Z,21.52
2023-04-01T22:13:29.650Z,21.83
2023-04-01T22:18:47.563Z,16.77
2023-04-01T22:23:53.531Z,27.25
2023-04-01T22:29:07.989Z,17.65
2023-04-01T22:34:23.341Z,18.23
2023-04-01T22:39:50.095Z,18.65
2023-04-01T22:45:07.506Z,16.77
2023-04-01T22:50:51.798Z,17.52
2023-04-01T22:55:59.369Z,19.45
2023-04-01T23:01:08.912Z,21.98
2023-04-01T23:06:36.804Z,20.63
2023-04-01T23:11:47.926Z,16.85
2023-04-01T23:17:04.875Z,17.15
2023-04-01T23:22:17.879Z,17.35
2023-04-01T23:27:40.743Z,18.05
2023-04-01T23:32:43.738Z,18.42
2023-04-01T23:37:47.247Z,18.00
2023-04-01T23:42:50.231Z,17.90
2023-04-01T23:47:53.763Z,21.85
2023-04-01T23:53:02.777Z,29.98
2023-04-01T23:58:17.944Z,19.73
